Time;durP1;ratioP1;P1;durP2;ratioP2;P2;SDS_P1;SDS_P2;PMS_P1;PMS_P2;Temp;Humidity;BMP_temperature;BMP_pressure;BME280_temperature;BME280_humidity;BME280_pressure;Samples;Min_cycle;Max_cycle;Signal;HPM_P1;HPM_P2
2022/08/27 00:01:50;;;;;;;;;;;;;;;24.06;61.11;100185.53;7402351;19;1691;-67
2022/08/27 00:04:19;;;;;;;;;;;;;;;24.11;61.09;100183.09;7403722;19;1558;-67
2022/08/27 00:06:47;;;;;;;;;;;;;;;24.07;61.18;100186.38;7403508;19;1454;-63
2022/08/27 00:09:15;;;;;;;;;;;;;;;24.14;60.69;100201.66;7402265;19;1879;-56
2022/08/27 00:11:45;;;;;;;;;;;;;;;24.06;61.15;100174.72;7402902;19;1523;-56
2022/08/27 00:14:16;;;;;;;;;;;;;;;24.09;61.04;100184.31;7403884;19;1616;-67
2022/08/27 00:16:45;;;;;;;;;;;;;;;24.10;60.74;100192.25;7403594;19;1528;-67
2022/08/27 00:19:13;;;;;;;;;;;;;;;24.15;60.55;100194.38;7404161;19;1590;-56
2022/08/27 00:21:41;;;;;;;;;;;;;;;24.09;60.46;100190.56;7405193;19;1532;-56
2022/08/27 00:24:11;;;;;;;;;;;;;;;24.03;60.48;100185.88;7401393;19;1415;-56
2022/08/27 00:26:39;;;;;;;;;;;;;;;24.08;59.78;100194.28;7401542;19;1539;-66
2022/08/27 00:29:07;;;;;;;;;;;;;;;24.07;59.69;100198.00;7404532;19;1339;-67
2022/08/27 00:31:39;;;;;;;;;;;;;;;24.04;59.35;100203.78;7402228;19;1949;-67
2022/08/27 00:34:07;;;;;;;;;;;;;;;24.08;59.31;100205.09;7403345;19;1756;-67
2022/08/27 00:36:36;;;;;;;;;;;;;;;24.08;59.22;100205.09;7403963;19;1544;-67
2022/08/27 00:39:04;;;;;;;;;;;;;;;24.10;58.85;100196.81;7408388;19;1500;-58
2022/08/27 00:41:33;;;;;;;;;;;;;;;24.07;59.17;100203.41;7408511;19;1155;-67
2022/08/27 00:44:02;;;;;;;;;;;;;;;24.09;59.21;100201.34;7410810;19;1633;-56
2022/08/27 00:46:41;;;;;;;;;;;;;;;24.08;59.31;100215.06;7410316;19;1514;-56
2022/08/27 00:49:14;;;;;;;;;;;;;;;24.10;59.21;100213.03;7410591;19;1629;-67
2022/08/27 00:51:43;;;;;;;;;;;;;;;24.10;59.11;100205.75;7408432;19;1858;-66
2022/08/27 00:54:13;;;;;;;;;;;;;;;24.15;58.97;100205.19;7407692;19;1638;-56
2022/08/27 00:56:45;;;;;;;;;;;;;;;24.09;58.96;100195.97;7408994;19;1571;-67
2022/08/27 00:59:14;;;;;;;;;;;;;;;24.08;58.93;100209.66;7408729;19;1625;-67
2022/08/27 01:02:17;;;;;;;;;;;;;;;24.09;59.19;100198.66;7407730;19;1499;-67
2022/08/27 01:04:34;;;;;;;;;;;;;;;24.15;58.91;100199.78;7407822;19;1684;-56
2022/08/27 01:07:04;;;;;;;;;;;;;;;24.19;59.01;100212.78;7410430;19;1429;-67
2022/08/27 01:09:32;;;;;;;;;;;;;;;24.14;58.84;100203.53;7408884;19;1855;-67
2022/08/27 01:12:01;;;;;;;;;;;;;;;24.06;59.03;100190.94;7409426;19;1498;-55
2022/08/27 01:14:29;;;;;;;;;;;;;;;24.07;59.06;100214.22;7408201;19;1398;-56
2022/08/27 01:16:59;;;;;;;;;;;;;;;24.03;58.86;100199.38;7408322;19;1503;-57
2022/08/27 01:19:32;;;;;;;;;;;;;;;24.03;58.89;100207.50;7410618;19;1590;-67
2022/08/27 01:22:07;;;;;;;;;;;;;;;24.04;58.96;100206.50;7410938;19;1489;-67
2022/08/27 01:24:41;;;;;;;;;;;;;;;23.96;58.74;100202.00;7408451;19;1633;-56
2022/08/27 01:27:12;;;;;;;;;;;;;;;24.01;58.35;100210.41;7409342;19;1621;-67
2022/08/27 01:29:41;;;;;;;;;;;;;;;24.00;58.48;100210.56;7408141;19;1857;-67
2022/08/27 01:32:11;;;;;;;;;;;;;;;24.00;58.71;100202.47;7409436;19;1433;-67
2022/08/27 01:34:40;;;;;;;;;;;;;;;24.08;58.37;100210.50;7408406;19;1583;-67
2022/08/27 01:37:09;;;;;;;;;;;;;;;24.01;58.07;100225.75;7410425;19;1481;-67
2022/08/27 01:39:41;;;;;;;;;;;;;;;24.02;58.36;100203.13;7407432;19;1645;-67
2022/08/27 01:42:11;;;;;;;;;;;;;;;24.11;57.66;100217.38;7407772;19;1605;-56
2022/08/27 01:44:47;;;;;;;;;;;;;;;24.05;58.18;100207.31;7407921;19;1582;-67
2022/08/27 01:47:15;;;;;;;;;;;;;;;24.06;58.31;100227.91;7409198;19;1632;-56
2022/08/27 01:49:44;;;;;;;;;;;;;;;24.06;58.18;100212.53;7406523;19;1857;-67
2022/08/27 01:52:13;;;;;;;;;;;;;;;24.07;57.81;100224.19;7406369;19;1605;-67
2022/08/27 01:54:44;;;;;;;;;;;;;;;24.07;58.04;100214.22;7406067;19;1632;-66
2022/08/27 01:57:13;;;;;;;;;;;;;;;24.04;58.04;100214.59;7407633;19;1410;-67
2022/08/27 01:59:42;;;;;;;;;;;;;;;23.97;58.31;100208.22;7409063;19;1417;-66
2022/08/27 02:02:12;;;;;;;;;;;;;;;23.94;58.17;100208.59;7391332;19;1438;-67
2022/08/27 02:04:40;;;;;;;;;;;;;;;24.02;58.37;100213.94;7404891;19;1621;-67
2022/08/27 02:07:08;;;;;;;;;;;;;;;24.05;58.08;100210.03;7406721;19;1744;-56
2022/08/27 02:09:37;;;;;;;;;;;;;;;24.02;58.16;100217.47;7405876;19;1347;-56
2022/08/27 02:12:08;;;;;;;;;;;;;;;23.95;58.38;100215.66;7402236;19;1849;-67
2022/08/27 02:14:36;;;;;;;;;;;;;;;23.96;58.28;100222.75;7406598;19;1558;-56
2022/08/27 02:17:05;;;;;;;;;;;;;;;24.02;57.77;100230.13;7406004;19;1527;-56
2022/08/27 02:19:33;;;;;;;;;;;;;;;23.84;58.14;100226.91;7405227;19;1573;-67
2022/08/27 02:22:02;;;;;;;;;;;;;;;23.99;57.70;100212.44;7405826;19;1117;-59
2022/08/27 02:24:30;;;;;;;;;;;;;;;23.96;57.64;100217.38;7405284;19;1308;-56
2022/08/27 02:26:59;;;;;;;;;;;;;;;24.04;57.64;100228.09;7406639;19;1646;-67
2022/08/27 02:29:30;;;;;;;;;;;;;;;24.09;57.45;100219.44;7406423;19;1321;-56
2022/08/27 02:31:58;;;;;;;;;;;;;;;24.07;57.72;100227.72;7403917;19;1904;-56
2022/08/27 02:34:27;;;;;;;;;;;;;;;24.02;57.83;100222.03;7406005;19;1189;-56
2022/08/27 02:36:55;;;;;;;;;;;;;;;24.03;57.48;100231.81;7406156;19;1605;-55
2022/08/27 02:39:23;;;;;;;;;;;;;;;24.04;57.86;100232.66;7405185;19;1504;-67
2022/08/27 02:41:52;;;;;;;;;;;;;;;23.99;57.90;100209.75;7405504;19;1421;-67
2022/08/27 02:44:20;;;;;;;;;;;;;;;23.95;57.66;100221.91;7405976;19;1443;-56
2022/08/27 02:46:51;;;;;;;;;;;;;;;23.91;57.65;100219.75;7405072;19;1312;-67
2022/08/27 02:49:20;;;;;;;;;;;;;;;23.78;58.18;100213.09;7406379;19;1426;-56
2022/08/27 02:51:48;;;;;;;;;;;;;;;23.87;58.04;100223.84;7405131;19;1902;-56
2022/08/27 02:54:16;;;;;;;;;;;;;;;23.95;57.72;100221.91;7406023;19;1624;-66
2022/08/27 02:56:45;;;;;;;;;;;;;;;23.93;57.82;100223.13;7406028;19;1579;-56
2022/08/27 02:59:13;;;;;;;;;;;;;;;23.82;57.83;100219.81;7405658;19;1579;-62
2022/08/27 03:01:42;;;;;;;;;;;;;;;23.65;58.08;100214.69;7401603;19;1562;-57
2022/08/27 03:04:13;;;;;;;;;;;;;;;23.73;58.07;100212.75;7405107;19;1659;-64
2022/08/27 03:06:41;;;;;;;;;;;;;;;23.89;57.72;100227.19;7405721;19;1402;-56
2022/08/27 03:09:10;;;;;;;;;;;;;;;23.93;57.52;100233.91;7402507;19;1544;-67
2022/08/27 03:11:39;;;;;;;;;;;;;;;23.92;57.44;100232.25;7400869;19;1864;-67
2022/08/27 03:14:08;;;;;;;;;;;;;;;23.84;57.27;100232.31;7405129;19;1453;-67
2022/08/27 03:16:36;;;;;;;;;;;;;;;23.55;57.91;100223.03;7405615;19;1710;-56
2022/08/27 03:19:03;;;;;;;;;;;;;;;23.56;58.33;100239.03;7404566;19;1539;-67
2022/08/27 03:21:35;;;;;;;;;;;;;;;23.66;57.93;100244.22;7406687;19;1585;-56
2022/08/27 03:24:04;;;;;;;;;;;;;;;23.69;57.70;100234.91;7405050;19;1324;-67
2022/08/27 03:26:33;;;;;;;;;;;;;;;23.77;57.41;100241.09;7405139;19;1530;-56
2022/08/27 03:29:01;;;;;;;;;;;;;;;23.80;57.57;100251.56;7405687;19;1788;-67
2022/08/27 03:31:30;;;;;;;;;;;;;;;23.79;57.13;100239.06;7404221;19;1869;-56
2022/08/27 03:34:00;;;;;;;;;;;;;;;23.86;57.54;100236.50;7405284;19;1527;-67
2022/08/27 03:36:29;;;;;;;;;;;;;;;23.77;57.57;100251.91;7406352;19;1602;-56
2022/08/27 03:39:00;;;;;;;;;;;;;;;23.89;57.56;100256.91;7404441;19;1421;-67
2022/08/27 03:41:29;;;;;;;;;;;;;;;23.87;57.50;100258.94;7404120;19;1855;-62
2022/08/27 03:43:58;;;;;;;;;;;;;;;23.87;57.42;100250.84;7401376;19;1721;-56
2022/08/27 03:46:28;;;;;;;;;;;;;;;23.84;58.26;100262.84;7403800;19;1280;-67
2022/08/27 03:48:57;;;;;;;;;;;;;;;23.77;57.32;100270.81;7395864;19;1387;-57
2022/08/27 03:51:25;;;;;;;;;;;;;;;23.62;57.73;100256.38;7403472;19;1842;-59
2022/08/27 03:53:54;;;;;;;;;;;;;;;23.60;57.99;100261.13;7400840;19;1548;-67
2022/08/27 03:56:25;;;;;;;;;;;;;;;23.50;58.54;100260.53;7403334;19;1433;-55
2022/08/27 03:58:53;;;;;;;;;;;;;;;23.25;59.69;100262.50;7403741;19;1215;-67
2022/08/27 04:01:21;;;;;;;;;;;;;;;23.45;58.50;100260.19;7403446;19;1378;-68
2022/08/27 04:03:51;;;;;;;;;;;;;;;23.60;57.99;100269.22;7404380;19;1372;-62
2022/08/27 04:06:19;;;;;;;;;;;;;;;23.57;58.03;100267.69;7405375;19;1221;-67
2022/08/27 04:08:47;;;;;;;;;;;;;;;23.61;57.72;100262.78;7402712;19;1273;-69
2022/08/27 04:11:16;;;;;;;;;;;;;;;23.58;58.00;100271.25;7403384;19;1864;-69
2022/08/27 04:13:47;;;;;;;;;;;;;;;23.53;57.95;100260.16;7409526;19;1498;-58
2022/08/27 04:16:15;;;;;;;;;;;;;;;23.56;58.08;100271.44;7410398;19;1544;-64
2022/08/27 04:18:44;;;;;;;;;;;;;;;23.54;58.05;100257.28;7408792;19;1328;-60
2022/08/27 04:21:14;;;;;;;;;;;;;;;23.61;58.01;100268.19;7411538;19;1376;-67
2022/08/27 04:23:43;;;;;;;;;;;;;;;23.50;58.53;100276.72;7410908;19;1303;-67
2022/08/27 04:26:13;;;;;;;;;;;;;;;23.52;58.25;100270.09;7410864;19;1333;-66
2022/08/27 04:28:42;;;;;;;;;;;;;;;23.54;57.75;100269.94;7411263;19;1794;-67
2022/08/27 04:31:13;;;;;;;;;;;;;;;23.54;57.78;100268.06;7409368;19;1869;-59
2022/08/27 04:33:41;;;;;;;;;;;;;;;23.57;58.17;100277.66;7411083;19;1348;-58
2022/08/27 04:36:11;;;;;;;;;;;;;;;23.62;58.24;100275.28;7409339;19;1301;-67
2022/08/27 04:38:40;;;;;;;;;;;;;;;23.53;58.44;100281.75;7409050;19;1417;-71
2022/08/27 04:41:23;;;;;;;;;;;;;;;23.51;58.14;100272.97;7410697;19;1391;-59
2022/08/27 04:43:53;;;;;;;;;;;;;;;23.58;57.80;100279.38;7411035;19;1346;-68
2022/08/27 04:46:25;;;;;;;;;;;;;;;23.59;57.84;100284.56;7409664;19;1333;-66
2022/08/27 04:48:53;;;;;;;;;;;;;;;23.66;57.38;100287.41;7408096;19;1243;-56
2022/08/27 04:51:22;;;;;;;;;;;;;;;23.73;57.61;100284.81;7408389;19;1842;-55
2022/08/27 04:53:51;;;;;;;;;;;;;;;23.57;57.19;100275.78;7407462;19;1637;-61
2022/08/27 04:56:21;;;;;;;;;;;;;;;23.61;57.45;100273.59;7410314;19;1515;-66
2022/08/27 04:58:49;;;;;;;;;;;;;;;23.63;57.69;100288.63;7410747;19;1438;-56
2022/08/27 05:01:18;;;;;;;;;;;;;;;23.61;57.69;100284.38;7407467;19;1547;-62
2022/08/27 05:03:49;;;;;;;;;;;;;;;23.63;57.60;100287.75;7409948;19;1625;-70
2022/08/27 05:06:18;;;;;;;;;;;;;;;23.56;58.07;100295.72;7409926;19;1369;-51
2022/08/27 05:08:46;;;;;;;;;;;;;;;23.79;57.33;100294.94;7407680;19;1666;-54
2022/08/27 05:11:16;;;;;;;;;;;;;;;23.77;56.42;100280.75;7408900;19;1842;-55
2022/08/27 05:13:46;;;;;;;;;;;;;;;23.87;57.18;100275.97;7409238;19;1461;-74
2022/08/27 05:16:15;;;;;;;;;;;;;;;23.85;57.95;100283.41;7409726;19;1602;-70
2022/08/27 05:18:44;;;;;;;;;;;;;;;23.91;57.62;100280.00;7407862;19;1335;-55
2022/08/27 05:21:17;;;;;;;;;;;;;;;24.00;57.16;100289.72;7408558;19;1581;-59
2022/08/27 05:23:46;;;;;;;;;;;;;;;24.07;56.87;100289.00;7406420;19;1253;-64
2022/08/27 05:26:14;;;;;;;;;;;;;;;24.12;56.29;100286.63;7407743;19;1687;-72
2022/08/27 05:28:43;;;;;;;;;;;;;;;24.13;56.51;100294.53;7408233;19;1500;-57
2022/08/27 05:31:12;;;;;;;;;;;;;;;24.20;56.23;100300.88;7409063;19;1841;-72
2022/08/27 05:33:42;;;;;;;;;;;;;;;24.32;58.17;100292.38;7409244;19;1438;-55
2022/08/27 05:36:16;;;;;;;;;;;;;;;24.34;58.33;100299.25;7409840;19;1465;-72
2022/08/27 05:38:48;;;;;;;;;;;;;;;24.39;58.26;100304.09;7406632;19;1544;-60
2022/08/27 05:41:18;;;;;;;;;;;;;;;24.48;57.25;100313.84;7407789;19;1454;-73
2022/08/27 05:43:47;;;;;;;;;;;;;;;24.47;57.44;100314.88;7408666;19;1453;-55
2022/08/27 05:46:17;;;;;;;;;;;;;;;24.52;57.25;100320.59;7408985;19;1515;-64
2022/08/27 05:48:45;;;;;;;;;;;;;;;24.56;57.17;100316.50;7406105;19;1628;-55
2022/08/27 05:51:15;;;;;;;;;;;;;;;24.68;57.00;100340.38;7408780;19;1858;-73
2022/08/27 05:53:44;;;;;;;;;;;;;;;24.74;57.15;100336.94;7407275;19;1374;-55
2022/08/27 05:56:19;;;;;;;;;;;;;;;24.72;57.03;100314.66;7408481;19;1609;-55
2022/08/27 06:01:29;;;;;;;;;;;;;;;24.78;56.78;100317.44;7407302;19;1632;-55
2022/08/27 06:03:58;;;;;;;;;;;;;;;24.81;56.85;100335.19;7408043;19;1535;-73
2022/08/27 06:06:26;;;;;;;;;;;;;;;24.87;56.96;100315.53;7407707;19;1520;-55
2022/08/27 06:08:55;;;;;;;;;;;;;;;24.88;56.89;100321.75;7405746;19;1394;-73
2022/08/27 06:11:26;;;;;;;;;;;;;;;24.92;56.66;100323.06;7408186;19;1854;-56
2022/08/27 06:13:54;;;;;;;;;;;;;;;24.92;56.68;100321.19;7405554;19;1835;-73
2022/08/27 06:16:22;;;;;;;;;;;;;;;24.92;56.79;100321.19;7408188;19;1591;-73
2022/08/27 06:18:51;;;;;;;;;;;;;;;24.95;56.67;100331.66;7406722;19;1486;-72
2022/08/27 06:21:21;;;;;;;;;;;;;;;24.94;56.65;100318.31;7409170;19;1543;-74
2022/08/27 06:23:49;;;;;;;;;;;;;;;24.94;56.78;100334.53;7406370;19;1691;-55
2022/08/27 06:26:20;;;;;;;;;;;;;;;24.89;57.17;100332.41;7406526;19;1513;-55
2022/08/27 06:28:51;;;;;;;;;;;;;;;24.83;57.20;100333.16;7405653;19;1555;-56
2022/08/27 06:31:21;;;;;;;;;;;;;;;24.80;57.37;100336.22;7405615;19;1863;-72
2022/08/27 06:33:50;;;;;;;;;;;;;;;24.84;57.46;100351.03;7408401;19;1618;-56
2022/08/27 06:36:20;;;;;;;;;;;;;;;24.81;57.69;100330.63;7406648;19;1719;-56
2022/08/27 06:38:48;;;;;;;;;;;;;;;24.80;57.80;100323.50;7404012;19;1499;-73
2022/08/27 06:41:18;;;;;;;;;;;;;;;24.83;57.61;100329.56;7406428;19;1534;-62
2022/08/27 06:43:46;;;;;;;;;;;;;;;24.81;57.71;100340.59;7407090;19;1448;-55
2022/08/27 06:46:20;;;;;;;;;;;;;;;24.79;57.64;100329.13;7407658;19;1594;-55
2022/08/27 06:48:49;;;;;;;;;;;;;;;24.79;57.98;100335.38;7407801;19;1512;-71
2022/08/27 06:51:19;;;;;;;;;;;;;;;24.79;57.96;100326.44;7407819;19;1413;-73
2022/08/27 06:53:48;;;;;;;;;;;;;;;24.79;58.08;100331.84;7405216;19;1602;-56
2022/08/27 06:56:17;;;;;;;;;;;;;;;24.81;58.05;100346.00;7400113;19;1569;-73
2022/08/27 06:58:45;;;;;;;;;;;;;;;24.84;57.97;100336.69;7405387;19;1564;-71
2022/08/27 07:01:15;;;;;;;;;;;;;;;24.80;58.05;100334.34;7404781;19;1531;-56
2022/08/27 07:03:46;;;;;;;;;;;;;;;24.84;58.43;100347.50;7407424;19;1570;-72
2022/08/27 07:06:15;;;;;;;;;;;;;;;24.83;58.43;100343.97;7405279;19;1461;-73
2022/08/27 07:08:44;;;;;;;;;;;;;;;24.87;58.04;100350.69;7406082;19;1659;-73
2022/08/27 07:11:14;;;;;;;;;;;;;;;24.85;58.47;100351.88;7406032;19;1594;-72
2022/08/27 07:13:43;;;;;;;;;;;;;;;24.84;58.17;100348.34;7403928;19;1838;-56
2022/08/27 07:16:13;;;;;;;;;;;;;;;24.85;58.56;100341.91;7406068;19;1578;-55
2022/08/27 07:18:41;;;;;;;;;;;;;;;24.88;58.39;100336.13;7406209;19;1523;-73
2022/08/27 07:21:13;;;;;;;;;;;;;;;24.89;58.39;100347.78;7406703;19;1449;-73
2022/08/27 07:23:41;;;;;;;;;;;;;;;24.88;58.65;100343.41;7404419;19;1562;-73
2022/08/27 07:26:10;;;;;;;;;;;;;;;24.91;58.42;100352.00;7405735;19;1512;-56
2022/08/27 07:28:39;;;;;;;;;;;;;;;24.89;58.42;100348.63;7406278;19;1654;-55
2022/08/27 07:31:08;;;;;;;;;;;;;;;24.87;58.73;100345.28;7405949;19;1538;-72
2022/08/27 07:33:37;;;;;;;;;;;;;;;24.89;58.71;100342.34;7405047;19;1846;-73
2022/08/27 07:36:06;;;;;;;;;;;;;;;24.89;58.88;100337.81;7405263;19;1501;-57
2022/08/27 07:38:37;;;;;;;;;;;;;;;24.87;58.68;100339.00;7405407;19;1557;-72
2022/08/27 07:41:06;;;;;;;;;;;;;;;24.89;58.86;100347.78;7404565;19;1532;-56
2022/08/27 07:46:17;;;;;;;;;;;;;;;25.02;59.80;100334.44;7403215;19;1241;-68
2022/08/27 07:48:46;;;;;;;;;;;;;;;25.01;59.78;100339.03;7407157;19;1376;-76
2022/08/27 07:51:16;;;;;;;;;;;;;;;25.04;59.87;100335.09;7406707;19;1185;-55
2022/08/27 07:53:47;;;;;;;;;;;;;;;25.07;59.67;100345.56;7405536;19;1912;-55
2022/08/27 07:56:16;;;;;;;;;;;;;;;25.13;59.51;100352.09;7404678;19;1065;-75
2022/08/27 07:58:45;;;;;;;;;;;;;;;25.14;59.57;100340.25;7404641;19;1744;-56
2022/08/27 08:01:13;;;;;;;;;;;;;;;25.18;60.30;100336.97;7404579;19;1332;-56
2022/08/27 08:03:43;;;;;;;;;;;;;;;25.20;59.86;100334.06;7408045;19;1627;-54
2022/08/27 08:06:12;;;;;;;;;;;;;;;25.14;60.63;100342.94;7408662;19;1030;-56
2022/08/27 08:08:41;;;;;;;;;;;;;;;25.15;60.39;100344.63;7404665;19;1458;-58
2022/08/27 08:11:14;;;;;;;;;;;;;;;24.41;61.44;100326.38;7404763;19;1230;-54
2022/08/27 08:13:43;;;;;;;;;;;;;;;23.53;62.31;100327.63;7403453;19;1863;-74
2022/08/27 08:16:12;;;;;;;;;;;;;;;23.34;62.67;100337.81;7405707;19;1385;-72
2022/08/27 08:18:40;;;;;;;;;;;;;;;23.41;62.14;100327.16;7402802;19;1233;-56
2022/08/27 08:21:10;;;;;;;;;;;;;;;23.55;62.25;100345.31;7403789;19;1238;-55
2022/08/27 08:23:38;;;;;;;;;;;;;;;23.57;62.82;100337.03;7406945;19;1354;-56
2022/08/27 08:26:07;;;;;;;;;;;;;;;23.65;63.82;100334.31;7403127;19;1288;-57
2022/08/27 08:28:38;;;;;;;;;;;;;;;23.70;64.45;100337.31;7407104;19;1823;-70
2022/08/27 08:31:07;;;;;;;;;;;;;;;23.82;64.57;100319.72;7404270;19;1289;-55
2022/08/27 08:33:36;;;;;;;;;;;;;;;23.74;65.35;100327.84;7403130;19;1857;-70
2022/08/27 08:36:06;;;;;;;;;;;;;;;23.79;65.72;100338.97;7403841;19;1220;-57
2022/08/27 08:38:36;;;;;;;;;;;;;;;23.78;65.52;100323.81;7401480;19;1453;-55
2022/08/27 08:41:05;;;;;;;;;;;;;;;23.86;65.90;100322.91;7401547;19;1251;-56
2022/08/27 08:43:34;;;;;;;;;;;;;;;23.90;65.28;100320.72;7405563;19;1344;-65
2022/08/27 08:46:09;;;;;;;;;;;;;;;23.82;65.25;100330.53;7399920;19;1567;-58
2022/08/27 08:48:40;;;;;;;;;;;;;;;23.68;65.83;100336.66;7404748;19;1412;-72
2022/08/27 08:51:11;;;;;;;;;;;;;;;23.55;66.03;100318.31;7406133;19;1646;-68
2022/08/27 08:53:44;;;;;;;;;;;;;;;23.66;65.15;100308.16;7403237;19;1861;-67
2022/08/27 08:56:17;;;;;;;;;;;;;;;23.58;65.08;100325.25;7405504;19;1337;-54
2022/08/27 11:35:24;;;;;;;;;;;;;;;24.85;71.81;100305.91;7423217;19;1650;-63
2022/08/27 11:38:02;;;;;;;;;;;;;;;24.22;71.33;100287.22;7433606;19;1649;-65
2022/08/27 11:40:39;;;;;;;;;;;;;;;23.84;71.44;100289.84;7431231;19;1499;-66
2022/08/27 11:43:09;;;;;;;;;;;;;;;23.71;70.26;100306.59;7439152;19;1373;-67
2022/08/27 11:45:39;;;;;;;;;;;;;;;23.63;69.69;100294.00;7435129;19;1659;-58
2022/08/27 11:48:18;;;;;;;;;;;;;;;23.56;69.85;100289.50;7436635;19;1342;-58
2022/08/27 11:50:58;;;;;;;;;;;;;;;23.67;69.45;100302.56;7435098;19;1244;-67
2022/08/27 11:53:27;;;;;;;;;;;;;;;23.68;69.90;100301.56;7436878;19;1860;-73
2022/08/27 11:55:56;;;;;;;;;;;;;;;23.59;69.14;100275.63;7434700;19;1373;-57
2022/08/27 11:58:27;;;;;;;;;;;;;;;23.54;69.08;100283.44;7437475;19;1515;-57
2022/08/27 12:00:56;;;;;;;;;;;;;;;23.50;69.07;100292.91;7435321;19;1277;-57
2022/08/27 12:03:26;;;;;;;;;;;;;;;23.39;68.81;100308.44;7436096;19;1743;-57
2022/08/27 12:06:10;;;;;;;;;;;;;;;23.41;67.97;100279.44;7438529;19;1519;-58
2022/08/27 12:08:41;;;;;;;;;;;;;;;23.45;67.16;100288.00;7437035;19;1381;-67
2022/08/27 12:11:15;;;;;;;;;;;;;;;23.29;67.78;100280.84;7427314;19;1832;-44
2022/08/27 12:13:46;;;;;;;;;;;;;;;23.35;67.21;100284.69;7427237;19;1853;-43
2022/08/27 12:16:23;;;;;;;;;;;;;;;23.43;66.56;100269.28;7434330;19;1792;-44
2022/08/27 12:18:57;;;;;;;;;;;;;;;23.45;66.05;100273.69;7429734;19;1489;-43
2022/08/27 12:21:31;;;;;;;;;;;;;;;23.49;66.04;100280.41;7427198;19;1534;-44
2022/08/27 12:24:31;;;;;;;;;;;;;;;23.49;65.94;100269.63;7429159;19;1796;-44
2022/08/27 12:27:04;;;;;;;;;;;;;;;23.29;66.19;100263.81;7432760;19;1661;-40
2022/08/27 12:29:43;;;;;;;;;;;;;;;23.39;66.05;100259.88;7440578;19;1662;-41
2022/08/27 12:32:21;;;;;;;;;;;;;;;23.39;65.71;100264.44;7437268;19;1841;-41
2022/08/27 12:34:51;;;;;;;;;;;;;;;23.46;64.99;100259.16;7431794;19;1899;-41
2022/08/27 12:37:26;;;;;;;;;;;;;;;23.49;64.95;100258.81;7435212;19;1384;-42
2022/08/27 12:40:00;;;;;;;;;;;;;;;23.48;64.93;100249.06;7434542;19;1662;-42
2022/08/27 12:42:28;;;;;;;;;;;;;;;23.50;65.01;100257.81;7432223;19;1894;-42
2022/08/27 12:44:58;;;;;;;;;;;;;;;23.53;64.85;100254.75;7422539;19;1731;-42
2022/08/27 12:47:27;;;;;;;;;;;;;;;23.56;65.00;100254.41;7401342;19;1661;-42
2022/08/27 12:49:58;;;;;;;;;;;;;;;23.45;65.53;100255.63;7403214;19;1597;-42
2022/08/27 12:52:41;;;;;;;;;;;;;;;23.48;65.48;100262.56;7403299;19;2046;-41
2022/08/27 12:55:17;;;;;;;;;;;;;;;23.57;64.54;100256.91;7401753;19;1969;-42
2022/08/27 12:57:49;;;;;;;;;;;;;;;23.70;64.27;100248.25;7404172;19;1729;-41
2022/08/27 13:00:19;;;;;;;;;;;;;;;23.58;64.66;100258.59;7404862;19;1484;-42
2022/08/27 13:02:54;;;;;;;;;;;;;;;23.57;64.34;100245.28;7405072;19;2068;-41
2022/08/27 13:05:24;;;;;;;;;;;;;;;23.41;65.03;100249.75;7402260;19;1944;-41
2022/08/27 13:07:53;;;;;;;;;;;;;;;23.43;65.04;100260.38;7404842;19;1745;-41
2022/08/27 13:10:28;;;;;;;;;;;;;;;23.41;65.00;100257.84;7402445;19;1600;-41
2022/08/27 13:13:02;;;;;;;;;;;;;;;23.76;67.50;100250.22;7403221;19;1891;-41
2022/08/27 13:15:32;;;;;;;;;;;;;;;23.87;68.11;100250.84;7403289;19;1873;-41
2022/08/27 13:18:01;;;;;;;;;;;;;;;23.97;68.80;100251.44;7401205;19;1777;-41
2022/08/27 13:20:30;;;;;;;;;;;;;;;24.27;68.13;100251.53;7404282;19;1885;-41
2022/08/27 13:22:58;;;;;;;;;;;;;;;24.63;66.73;100250.88;7404358;19;1730;-41
2022/08/27 13:25:30;;;;;;;;;;;;;;;24.83;65.66;100252.00;7404197;19;1748;-41
2022/08/27 13:28:06;;;;;;;;;;;;;;;24.95;65.02;100241.56;7402996;19;1694;-44
2022/08/27 13:30:36;;;;;;;;;;;;;;;25.02;65.24;100256.81;7403169;19;1667;-44
2022/08/27 13:33:05;;;;;;;;;;;;;;;25.05;65.61;100254.78;7404482;19;1633;-44
2022/08/27 13:35:33;;;;;;;;;;;;;;;25.00;65.89;100264.28;7402629;19;1857;-44
2022/08/27 13:38:03;;;;;;;;;;;;;;;25.11;65.19;100248.59;7403866;19;1777;-44
2022/08/27 13:40:36;;;;;;;;;;;;;;;25.06;67.35;100234.81;7404039;19;2207;-44
2022/08/27 13:43:05;;;;;;;;;;;;;;;24.97;69.15;100237.63;7402882;19;1971;-44
2022/08/27 13:45:34;;;;;;;;;;;;;;;25.05;67.42;100233.13;7403575;19;1673;-44
2022/08/27 13:48:03;;;;;;;;;;;;;;;25.14;67.00;100248.25;7403600;19;1678;-44
2022/08/27 13:50:33;;;;;;;;;;;;;;;25.17;66.82;100237.06;7402064;19;1782;-44
2022/08/27 13:55:50;;;;;;;;;;;;;;;25.25;67.22;100233.41;7397608;19;1850;-44
2022/08/27 13:58:21;;;;;;;;;;;;;;;25.23;68.01;100227.34;7399341;19;1821;-44
2022/08/27 14:00:49;;;;;;;;;;;;;;;25.27;67.10;100240.34;7400066;19;1654;-45
2022/08/27 14:03:31;;;;;;;;;;;;;;;25.22;67.09;100245.47;7398716;19;1663;-43
2022/08/27 14:05:59;;;;;;;;;;;;;;;25.23;66.79;100222.81;7400107;19;1516;-45
2022/08/27 14:08:30;;;;;;;;;;;;;;;25.16;66.59;100216.44;7396260;19;1823;-43
2022/08/27 14:11:06;;;;;;;;;;;;;;;25.10;67.42;100233.41;7398100;19;1578;-43
2022/08/27 14:13:40;;;;;;;;;;;;;;;25.06;67.77;100229.41;7400155;19;1722;-43
2022/08/27 14:16:15;;;;;;;;;;;;;;;25.05;67.36;100223.19;7399963;19;1725;-44
2022/08/27 14:18:52;;;;;;;;;;;;;;;25.07;67.55;100217.56;7397942;19;1848;-44
2022/08/27 14:21:21;;;;;;;;;;;;;;;25.08;67.33;100232.78;7396975;19;1527;-44
2022/08/27 14:23:49;;;;;;;;;;;;;;;25.07;67.27;100225.66;7399894;19;1818;-45
2022/08/27 14:26:20;;;;;;;;;;;;;;;25.07;67.29;100209.44;7403873;19;1851;-44
2022/08/27 14:28:48;;;;;;;;;;;;;;;25.12;67.05;100228.66;7403631;19;1682;-43
2022/08/27 14:31:17;;;;;;;;;;;;;;;25.07;66.75;100231.06;7401725;19;1758;-44
2022/08/27 14:33:46;;;;;;;;;;;;;;;25.08;66.65;100227.34;7398311;19;1678;-44
2022/08/27 14:36:15;;;;;;;;;;;;;;;25.06;66.75;100235.66;7403302;19;1468;-44
2022/08/27 14:38:45;;;;;;;;;;;;;;;25.10;66.79;100231.53;7403299;19;1599;-44
2022/08/27 14:41:13;;;;;;;;;;;;;;;25.07;66.77;100233.78;7403020;19;1844;-44
2022/08/27 14:43:44;;;;;;;;;;;;;;;25.07;66.54;100231.06;7401480;19;1832;-44
2022/08/27 14:46:15;;;;;;;;;;;;;;;25.06;66.58;100230.25;7402218;19;1931;-43
2022/08/27 14:48:44;;;;;;;;;;;;;;;25.05;66.51;100223.19;7401804;19;1825;-44
2022/08/27 14:51:15;;;;;;;;;;;;;;;25.09;66.65;100240.72;7401806;19;1914;-44
2022/08/27 14:53:44;;;;;;;;;;;;;;;25.05;66.56;100227.72;7401968;19;1754;-43
2022/08/27 14:56:12;;;;;;;;;;;;;;;25.04;66.27;100232.31;7400616;19;1861;-43
2022/08/27 14:58:40;;;;;;;;;;;;;;;25.05;66.54;100225.00;7398856;19;1655;-44
2022/08/27 15:01:11;;;;;;;;;;;;;;;25.06;66.51;100237.53;7399553;19;1853;-43
2022/08/27 15:03:40;;;;;;;;;;;;;;;25.05;66.22;100235.84;7402002;19;1920;-44
2022/08/27 15:06:09;;;;;;;;;;;;;;;25.08;66.19;100230.91;7402914;19;1605;-45
2022/08/27 15:08:37;;;;;;;;;;;;;;;25.07;66.14;100241.91;7402201;19;1913;-44
2022/08/27 15:11:05;;;;;;;;;;;;;;;25.05;66.44;100238.53;7400559;19;1863;-44
2022/08/27 15:13:34;;;;;;;;;;;;;;;25.04;66.38;100237.72;7400220;19;1741;-44
2022/08/27 15:16:02;;;;;;;;;;;;;;;25.07;66.29;100247.31;7395867;19;1842;-44
2022/08/27 15:18:33;;;;;;;;;;;;;;;25.06;66.08;100229.41;7399706;19;1909;-45
2022/08/27 15:21:01;;;;;;;;;;;;;;;25.02;66.10;100235.19;7401907;19;2018;-44
2022/08/27 15:23:30;;;;;;;;;;;;;;;25.06;66.06;100246.47;7400986;19;2192;-44
2022/08/27 15:25:58;;;;;;;;;;;;;;;25.02;65.98;100243.31;7400626;19;1806;-44
2022/08/27 15:28:26;;;;;;;;;;;;;;;25.08;65.74;100239.00;7400364;19;1922;-44
2022/08/27 15:30:54;;;;;;;;;;;;;;;25.08;65.52;100235.47;7400897;19;1924;-44
2022/08/27 15:33:23;;;;;;;;;;;;;;;25.14;65.71;100242.84;7400760;19;1598;-44
2022/08/27 15:35:54;;;;;;;;;;;;;;;25.09;66.25;100250.66;7399222;19;1863;-44
2022/08/27 15:38:22;;;;;;;;;;;;;;;25.07;66.39;100252.72;7400695;19;1810;-45
2022/08/27 15:40:51;;;;;;;;;;;;;;;25.04;66.38;100245.00;7399016;19;1854;-44
2022/08/27 15:43:19;;;;;;;;;;;;;;;25.04;66.32;100248.53;7400633;19;1834;-43
2022/08/27 15:45:47;;;;;;;;;;;;;;;25.05;65.94;100243.94;7400097;19;1939;-43
2022/08/27 15:48:16;;;;;;;;;;;;;;;25.04;66.03;100245.00;7399729;19;1657;-44